createdAt,value
2019-05-18T00:00:38.413Z,925.2
2019-05-18T00:01:39.547Z,925.2
2019-05-18T00:02:40.958Z,925.2
2019-05-18T00:03:41.715Z,925.2
2019-05-18T00:04:43.112Z,925.2
2019-05-18T00:05:44.505Z,925.2
2019-05-18T00:06:45.628Z,925.3
2019-05-18T00:07:46.783Z,925.2
2019-05-18T00:08:47.905Z,925.2
2019-05-18T00:09:49.035Z,925.3
2019-05-18T00:10:50.167Z,925.2
2019-05-18T00:11:51.558Z,925.2
2019-05-18T00:12:52.979Z,925.2
2019-05-18T00:13:53.472Z,925.2
2019-05-18T00:14:54.597Z,925.2
2019-05-18T00:15:55.722Z,925.2
2019-05-18T00:16:57.117Z,925.3
2019-05-18T00:17:58.543Z,925.2
2019-05-18T00:18:59.657Z,925.2
2019-05-18T00:20:00.793Z,925.2
2019-05-18T00:21:01.966Z,925.1
2019-05-18T00:22:03.329Z,923.3
2019-05-18T00:23:04.737Z,925.1
2019-05-18T00:24:05.517Z,925.1
2019-05-18T00:25:06.973Z,925.2
2019-05-18T00:26:08.323Z,925.2
2019-05-18T00:27:09.447Z,925.1
2019-05-18T00:28:10.598Z,925.1
2019-05-18T00:29:11.992Z,925.2
2019-05-18T00:30:13.391Z,925.1
2019-05-18T00:31:14.781Z,925.1
2019-05-18T00:32:16.180Z,925
2019-05-18T00:33:17.592Z,925.1
2019-05-18T00:34:18.080Z,925.1
2019-05-18T00:35:22.087Z,925.1
2019-05-18T00:36:20.445Z,925.1
2019-05-18T00:37:21.837Z,925.1
2019-05-18T00:38:23.253Z,925.1
2019-05-18T00:39:24.408Z,925.1
2019-05-18T00:40:25.515Z,925
2019-05-18T00:41:26.637Z,925
2019-05-18T00:42:28.033Z,924.8
2019-05-18T00:43:29.437Z,925.1
2019-05-18T00:44:30.197Z,924.9
2019-05-18T00:45:31.591Z,925
2019-05-18T00:46:32.723Z,925
2019-05-18T00:47:47.624Z,924.8
2019-05-18T00:48:34.910Z,925
2019-05-18T00:49:36.028Z,925
2019-05-18T00:50:37.154Z,925
2019-05-18T00:51:38.554Z,923.2
2019-05-18T00:52:39.939Z,925
2019-05-18T00:53:41.088Z,924.9
2019-05-18T00:54:41.862Z,925
2019-05-18T00:55:43.240Z,924.9
2019-05-18T00:56:44.623Z,924.7
2019-05-18T00:57:46.048Z,924.9
2019-05-18T00:58:47.435Z,924.9
2019-05-18T00:59:48.833Z,924.8
2019-05-18T01:00:50.222Z,924.9
2019-05-18T01:01:51.629Z,924.9
2019-05-18T01:02:53.035Z,924.8
2019-05-18T01:03:54.487Z,924.9
2019-05-18T01:04:55.207Z,924.7
2019-05-18T01:05:56.601Z,924.9
2019-05-18T01:06:57.993Z,924.7
2019-05-18T01:07:59.410Z,924.8
2019-05-18T01:09:00.805Z,924.8
2019-05-18T01:10:02.253Z,924.8
2019-05-18T01:11:03.663Z,924.8
2019-05-18T01:12:05.061Z,924.7
2019-05-18T01:13:06.480Z,924.8
2019-05-18T01:14:07.885Z,924.2
2019-05-18T01:15:08.381Z,924.7
2019-05-18T01:16:09.511Z,924.8
2019-05-18T01:17:10.645Z,924.9
2019-05-18T01:18:11.794Z,924.8
2019-05-18T01:19:13.193Z,924.8
2019-05-18T01:20:14.579Z,924.8
2019-05-18T01:21:15.979Z,924.8
2019-05-18T01:22:17.380Z,924.8
2019-05-18T01:23:18.797Z,924.8
2019-05-18T01:24:20.191Z,924.8
2019-05-18T01:25:20.957Z,923.4
2019-05-18T01:26:22.345Z,924.7
2019-05-18T01:27:23.747Z,924.7
2019-05-18T01:28:25.178Z,924.5
2019-05-18T01:29:26.293Z,924.5
2019-05-18T01:30:27.687Z,924.7
2019-05-18T01:31:29.087Z,924.7
2019-05-18T01:32:30.208Z,924.5
2019-05-18T01:33:31.357Z,924.4
2019-05-18T01:34:32.491Z,924.7
2019-05-18T01:35:33.252Z,924.7
2019-05-18T01:36:34.641Z,924.5
2019-05-18T01:37:35.770Z,924.6
2019-05-18T01:38:37.187Z,924.7
2019-05-18T01:39:38.586Z,924.7
2019-05-18T01:40:39.982Z,924.7
2019-05-18T01:41:41.372Z,924.6
2019-05-18T01:42:42.766Z,924.6
2019-05-18T01:43:44.186Z,924.7
2019-05-18T01:44:45.581Z,924.7
2019-05-18T01:45:46.078Z,924.5
2019-05-18T01:46:47.461Z,924.7
2019-05-18T01:47:48.858Z,924.6
2019-05-18T01:48:50.027Z,924.7
2019-05-18T01:49:51.469Z,924.6
2019-05-18T01:50:52.578Z,924.6
2019-05-18T01:51:53.711Z,924.6
2019-05-18T01:52:54.830Z,924.6
2019-05-18T01:53:56.253Z,924.6
2019-05-18T01:54:57.648Z,924.6
2019-05-18T01:55:58.417Z,924.5
2019-05-18T01:56:59.807Z,924.6
2019-05-18T01:58:01.209Z,924.5
2019-05-18T01:59:02.626Z,924.6
2019-05-18T02:00:04.116Z,924.6
2019-05-18T02:01:05.579Z,924.6
2019-05-18T02:02:06.970Z,924.4
2019-05-18T02:03:08.361Z,924.5
2019-05-18T02:04:09.789Z,924.6
2019-05-18T02:05:11.182Z,924.4
2019-05-18T02:06:11.955Z,924.6
2019-05-18T02:07:13.070Z,924.6
2019-05-18T02:08:14.196Z,924.5
2019-05-18T02:09:15.600Z,924.5
2019-05-18T02:10:17.004Z,924.5
2019-05-18T02:11:18.401Z,924.3
2019-05-18T02:12:19.787Z,924.5
2019-05-18T02:13:21.193Z,924.5
2019-05-18T02:14:22.610Z,924.3
2019-05-18T02:15:24.012Z,924.4
2019-05-18T02:16:24.777Z,924.4
2019-05-18T02:17:26.177Z,924.5
2019-05-18T02:18:34.693Z,924.6
2019-05-18T02:19:30.268Z,924.5
2019-05-18T02:20:29.654Z,924.5
2019-05-18T02:21:30.787Z,924.5
2019-05-18T02:22:31.910Z,924.4
2019-05-18T02:23:33.303Z,924.5
2019-05-18T02:24:34.723Z,924.5
2019-05-18T02:25:36.132Z,924.5
2019-05-18T02:26:36.902Z,924.5
2019-05-18T02:27:38.308Z,924.4
2019-05-18T02:28:39.698Z,924.4
2019-05-18T02:29:41.113Z,924.4
2019-05-18T02:30:42.503Z,924.4
2019-05-18T02:31:43.908Z,924.4
2019-05-18T02:32:45.312Z,924.5
2019-05-18T02:33:46.695Z,924.3
2019-05-18T02:34:48.103Z,924.4
2019-05-18T02:35:49.236Z,924.5
2019-05-18T02:36:49.995Z,924.2
2019-05-18T02:37:51.386Z,924.3
2019-05-18T02:38:52.773Z,924.2
2019-05-18T02:39:54.192Z,924.4
2019-05-18T02:40:55.318Z,924.4
2019-05-18T02:41:56.446Z,924.4
2019-05-18T02:42:57.576Z,924.4
2019-05-18T02:43:58.709Z,924.4
2019-05-18T02:44:59.862Z,924.4
2019-05-18T02:46:01.269Z,924.5
2019-05-18T02:47:02.032Z,924.4
2019-05-18T02:48:03.424Z,924.4
2019-05-18T02:49:04.820Z,924.3
2019-05-18T02:50:06.240Z,924.4
2019-05-18T02:51:11.008Z,924.3
2019-05-18T02:52:08.691Z,924.4
2019-05-18T02:53:10.099Z,924.1
2019-05-18T02:54:11.495Z,924.3
2019-05-18T02:55:12.642Z,924.3
2019-05-18T02:56:14.032Z,924.3
2019-05-18T02:57:14.791Z,924.3
2019-05-18T02:58:15.975Z,924.3
2019-05-18T02:59:17.354Z,924.3
2019-05-18T03:00:18.499Z,924.3
2019-05-18T03:01:19.627Z,924.4
2019-05-18T03:02:20.754Z,924.4
2019-05-18T03:03:22.139Z,924.3
2019-05-18T03:04:23.543Z,924.3
2019-05-18T03:05:24.690Z,924.4
2019-05-18T03:06:25.811Z,924.4
2019-05-18T03:07:26.578Z,924.3
2019-05-18T03:08:27.971Z,924.3
2019-05-18T03:09:29.105Z,924.3
2019-05-18T03:10:30.521Z,924.3
2019-05-18T03:11:31.904Z,924.3
2019-05-18T03:12:33.304Z,924.3
2019-05-18T03:13:34.694Z,923.1
2019-05-18T03:14:36.087Z,924.3
2019-05-18T03:15:37.509Z,924.3
2019-05-18T03:16:38.901Z,924.2
2019-05-18T03:17:39.660Z,924.3
2019-05-18T03:18:41.061Z,924.3
2019-05-18T03:19:42.191Z,924.3
2019-05-18T03:20:43.335Z,924.3
2019-05-18T03:21:44.460Z,924.2
2019-05-18T03:22:45.608Z,924.2
2019-05-18T03:23:46.717Z,924.3
2019-05-18T03:24:48.155Z,924.4
2019-05-18T03:25:49.546Z,924.4
2019-05-18T03:26:50.940Z,924.2
2019-05-18T03:27:51.705Z,924.3
2019-05-18T03:28:53.107Z,924.3
2019-05-18T03:29:54.513Z,924.3
2019-05-18T03:30:55.908Z,924.4
2019-05-18T03:31:57.047Z,924.4
2019-05-18T03:32:58.162Z,924.2
2019-05-18T03:33:59.292Z,924.3
2019-05-18T03:35:00.724Z,924.4
2019-05-18T03:36:02.137Z,924.4
2019-05-18T03:37:03.494Z,924.4
2019-05-18T03:38:04.254Z,924.4
2019-05-18T03:39:05.381Z,924.4
2019-05-18T03:40:06.540Z,924.4
2019-05-18T03:41:07.937Z,924.3
2019-05-18T03:42:09.330Z,924.3
2019-05-18T03:43:10.721Z,924.2
2019-05-18T03:44:12.116Z,924.4
2019-05-18T03:45:13.542Z,924.3
2019-05-18T03:46:14.937Z,924.2
2019-05-18T03:47:16.325Z,924.4
2019-05-18T03:48:16.816Z,924.2
2019-05-18T03:49:26.569Z,924.3
2019-05-18T03:50:19.423Z,924.3
2019-05-18T03:51:20.809Z,924.2
2019-05-18T03:52:22.211Z,924.3
2019-05-18T03:53:23.937Z,924.3
2019-05-18T03:54:24.332Z,924.3
2019-05-18T03:55:25.497Z,924.3
2019-05-18T03:56:26.882Z,924
2019-05-18T03:57:28.291Z,924.3
2019-05-18T03:58:29.074Z,924.2
2019-05-18T03:59:30.209Z,924.3
2019-05-18T04:00:31.359Z,924.3
2019-05-18T04:01:32.751Z,924.1
2019-05-18T04:02:34.142Z,924.3
2019-05-18T04:03:35.543Z,924.2
2019-05-18T04:04:36.932Z,924.3
2019-05-18T04:05:38.390Z,924.3
2019-05-18T04:06:39.762Z,924.4
2019-05-18T04:07:41.159Z,924.3
2019-05-18T04:08:41.927Z,924.3
2019-05-18T04:09:43.343Z,924.3
2019-05-18T04:10:44.758Z,924.4
2019-05-18T04:11:46.153Z,924.3
2019-05-18T04:12:47.546Z,924.4
2019-05-18T04:13:48.949Z,924.3
2019-05-18T04:14:50.342Z,924.4
2019-05-18T04:15:51.769Z,924.4
2019-05-18T04:16:53.153Z,924.3
2019-05-18T04:17:54.554Z,924.3
2019-05-18T04:18:55.308Z,924.3
2019-05-18T04:19:56.707Z,924.4
2019-05-18T04:20:58.120Z,924.3
2019-05-18T04:21:59.250Z,924.4
2019-05-18T04:23:00.643Z,924.2
2019-05-18T04:24:02.038Z,924.3
2019-05-18T04:25:03.167Z,924.3
2019-05-18T04:26:04.322Z,924.3
2019-05-18T04:27:05.716Z,924.4
2019-05-18T04:28:07.109Z,924.3
2019-05-18T04:29:07.596Z,924.3
2019-05-18T04:30:08.737Z,924.3
2019-05-18T04:31:09.906Z,924.4
2019-05-18T04:32:11.297Z,924.4
2019-05-18T04:33:12.685Z,924.3
2019-05-18T04:34:14.122Z,924.3
2019-05-18T04:35:15.474Z,924.2
2019-05-18T04:36:16.895Z,924.4
2019-05-18T04:37:18.289Z,924.4
2019-05-18T04:38:19.685Z,924.3
2019-05-18T04:39:20.460Z,924.4
2019-05-18T04:40:21.858Z,924.3
2019-05-18T04:41:23.266Z,924.5
2019-05-18T04:42:24.389Z,924.5
2019-05-18T04:43:25.524Z,924.5
2019-05-18T04:44:26.651Z,924.5
2019-05-18T04:45:28.040Z,924.5
2019-05-18T04:46:29.463Z,924.4
2019-05-18T04:47:30.610Z,924.4
2019-05-18T04:48:31.998Z,924.5
2019-05-18T04:49:32.751Z,924.5
2019-05-18T04:50:33.882Z,924.5
2019-05-18T04:51:35.032Z,924.5
2019-05-18T04:52:36.431Z,924.5
2019-05-18T04:53:37.825Z,924.6
2019-05-18T04:54:39.224Z,924.5
2019-05-18T04:55:40.351Z,924.5
2019-05-18T04:56:42.961Z,924.5
2019-05-18T04:57:42.224Z,924.5
2019-05-18T04:58:43.348Z,924.6
2019-05-18T04:59:44.119Z,924.6
2019-05-18T05:00:45.512Z,924.6
2019-05-18T05:01:47.000Z,924.6
2019-05-18T05:02:48.102Z,924.6
2019-05-18T05:03:49.229Z,924.6
2019-05-18T05:04:52.783Z,924.5
2019-05-18T05:05:52.036Z,924.4
2019-05-18T05:06:53.464Z,924.5
2019-05-18T05:07:54.594Z,924.6
2019-05-18T05:08:55.709Z,924.5
2019-05-18T05:09:56.205Z,924.7
2019-05-18T05:10:57.601Z,924.6
2019-05-18T05:11:59.032Z,924.7
2019-05-18T05:13:00.431Z,924.6
2019-05-18T05:14:01.864Z,924.6
2019-05-18T05:15:03.253Z,924.5
2019-05-18T05:16:04.382Z,924.5
2019-05-18T05:17:05.538Z,924.5
2019-05-18T05:18:06.938Z,924.7
2019-05-18T05:19:08.852Z,924.7
2019-05-18T05:20:19.044Z,924.7
2019-05-18T05:21:09.671Z,924.7
2019-05-18T05:22:11.097Z,924.6
2019-05-18T05:23:12.491Z,924.7
2019-05-18T05:24:13.898Z,924.7
2019-05-18T05:25:15.289Z,924.6
2019-05-18T05:26:16.685Z,924.7
2019-05-18T05:27:18.107Z,924.7
2019-05-18T05:28:19.501Z,924.7
2019-05-18T05:29:20.907Z,924.7
2019-05-18T05:30:21.668Z,924.7
2019-05-18T05:31:23.061Z,924.7
2019-05-18T05:32:24.511Z,924.6
2019-05-18T05:33:25.898Z,924.5
2019-05-18T05:34:27.290Z,924.7
2019-05-18T05:35:28.683Z,923.2
2019-05-18T05:36:29.821Z,924.7
2019-05-18T05:37:30.961Z,924.6
2019-05-18T05:38:32.095Z,924.7
2019-05-18T05:39:33.218Z,924.7
2019-05-18T05:40:33.990Z,924.7
2019-05-18T05:41:35.375Z,924.7
2019-05-18T05:42:36.803Z,924.6
2019-05-18T05:43:38.191Z,924.7
2019-05-18T05:44:39.603Z,924.5
2019-05-18T05:45:40.986Z,924.7
2019-05-18T05:46:42.908Z,924.7
2019-05-18T05:47:43.052Z,924.7
2019-05-18T05:48:44.445Z,923.3
2019-05-18T05:49:45.842Z,924.6
2019-05-18T05:50:46.599Z,924.5
2019-05-18T05:51:47.988Z,924.8
2019-05-18T05:52:49.421Z,924.7
2019-05-18T05:53:50.811Z,924.6
2019-05-18T05:54:52.208Z,924.7
2019-05-18T05:55:53.603Z,924.6
2019-05-18T05:56:54.992Z,924.7
2019-05-18T05:57:56.422Z,924.8
2019-05-18T05:58:57.822Z,924.7
2019-05-18T05:59:59.217Z,924.8
2019-05-18T06:00:59.984Z,923.8
2019-05-18T06:02:01.391Z,924.9
2019-05-18T06:03:02.794Z,924.9
2019-05-18T06:04:03.920Z,924.8
2019-05-18T06:05:05.054Z,924.8
2019-05-18T06:06:06.186Z,924.8
2019-05-18T06:07:07.579Z,924.9
2019-05-18T06:08:08.998Z,924.9
2019-05-18T06:09:10.404Z,924.9
2019-05-18T06:10:11.792Z,924.9
2019-05-18T06:11:12.557Z,924.9
2019-05-18T06:12:13.950Z,924.9
2019-05-18T06:13:15.380Z,924.9
2019-05-18T06:14:16.774Z,924.8
2019-05-18T06:15:18.159Z,924.9
2019-05-18T06:16:19.552Z,924.9
2019-05-18T06:17:20.949Z,925
2019-05-18T06:18:22.390Z,925
2019-05-18T06:19:23.780Z,924.9
2019-05-18T06:20:25.177Z,924.9
2019-05-18T06:21:25.934Z,924.9
2019-05-18T06:22:27.336Z,925
2019-05-18T06:23:28.742Z,924.9
2019-05-18T06:24:29.872Z,925
2019-05-18T06:25:34.152Z,925
2019-05-18T06:26:32.380Z,925
2019-05-18T06:27:33.768Z,925
2019-05-18T06:28:35.204Z,925
2019-05-18T06:29:36.597Z,925
2019-05-18T06:30:37.984Z,925
2019-05-18T06:31:38.746Z,925
2019-05-18T06:32:39.877Z,925.1
2019-05-18T06:33:41.025Z,924.9
2019-05-18T06:34:42.427Z,925
2019-05-18T06:35:43.824Z,925
2019-05-18T06:36:45.228Z,925
2019-05-18T06:37:46.610Z,924.9
2019-05-18T06:38:48.050Z,924.9
2019-05-18T06:39:49.439Z,925
2019-05-18T06:40:50.829Z,925
2019-05-18T06:41:51.584Z,925.1
2019-05-18T06:42:52.976Z,925.1
2019-05-18T06:43:54.390Z,925.1
2019-05-18T06:44:55.516Z,925
2019-05-18T06:45:56.920Z,925
2019-05-18T06:46:58.311Z,925.1
2019-05-18T06:47:59.447Z,925.1
2019-05-18T06:49:00.595Z,925.1
2019-05-18T06:50:01.714Z,925.1
2019-05-18T06:51:06.995Z,925.1
2019-05-18T06:52:04.180Z,925.2
2019-05-18T06:53:05.306Z,925.2
2019-05-18T06:54:06.730Z,925.1
2019-05-18T06:55:08.117Z,925.1
2019-05-18T06:56:09.522Z,925.1
2019-05-18T06:57:10.915Z,925
2019-05-18T06:58:12.309Z,925.1
2019-05-18T06:59:16.307Z,925.1
2019-05-18T07:00:14.702Z,925.2
2019-05-18T07:01:15.826Z,925.1
2019-05-18T07:02:16.665Z,925.2
2019-05-18T07:03:17.790Z,925.2
2019-05-18T07:04:18.931Z,925.1
2019-05-18T07:05:20.060Z,925.1
2019-05-18T07:06:21.194Z,925.2
2019-05-18T07:07:22.347Z,925.1
2019-05-18T07:08:23.727Z,925.1
2019-05-18T07:09:25.119Z,925
2019-05-18T07:10:26.520Z,925.1
2019-05-18T07:11:27.921Z,924
2019-05-18T07:12:28.408Z,925
2019-05-18T07:13:29.557Z,925.1
2019-05-18T07:14:30.688Z,925.1
2019-05-18T07:15:32.085Z,925.2
2019-05-18T07:16:33.487Z,925.1
2019-05-18T07:17:34.881Z,925.2
2019-05-18T07:18:36.270Z,925.1
2019-05-18T07:19:37.694Z,925.2
2019-05-18T07:20:39.093Z,925.2
2019-05-18T07:21:40.484Z,925.1
2019-05-18T07:22:41.116Z,925.1
2019-05-18T07:23:43.908Z,925.2
2019-05-18T07:24:43.392Z,925.2
2019-05-18T07:25:44.779Z,925
2019-05-18T07:26:45.910Z,925.1
2019-05-18T07:27:47.039Z,925.1
2019-05-18T07:28:48.463Z,925.1
2019-05-18T07:29:49.867Z,925.1
2019-05-18T07:30:51.282Z,925.1
2019-05-18T07:31:52.411Z,925
2019-05-18T07:32:52.917Z,925.1
2019-05-18T07:33:54.049Z,925.1
2019-05-18T07:34:55.459Z,925.1
2019-05-18T07:35:56.870Z,925.1
2019-05-18T07:36:58.255Z,925.1
2019-05-18T07:37:59.683Z,925.2
2019-05-18T07:39:01.080Z,925.1
2019-05-18T07:40:02.505Z,925.1
2019-05-18T07:41:03.890Z,925
2019-05-18T07:42:05.299Z,925.1
2019-05-18T07:43:06.312Z,925
2019-05-18T07:44:07.701Z,925.1
2019-05-18T07:45:09.139Z,925
2019-05-18T07:46:14.169Z,925.1
2019-05-18T07:47:11.259Z,925.1
2019-05-18T07:48:12.392Z,924.9
2019-05-18T07:49:13.530Z,924.9
2019-05-18T07:50:14.673Z,925
2019-05-18T07:51:15.802Z,924.9
2019-05-18T07:52:17.388Z,924.9
2019-05-18T07:53:18.165Z,925
2019-05-18T07:54:19.322Z,925
2019-05-18T07:55:20.723Z,925
2019-05-18T07:56:22.104Z,925
2019-05-18T07:57:23.504Z,924.9
2019-05-18T07:58:24.894Z,925
2019-05-18T07:59:26.292Z,925
2019-05-18T08:00:27.427Z,924.9
2019-05-18T08:01:28.817Z,924.9
2019-05-18T08:02:30.228Z,925
2019-05-18T08:03:31.064Z,924.9
2019-05-18T08:04:32.473Z,925
2019-05-18T08:05:33.601Z,923.9
2019-05-18T08:06:35.001Z,924.9
2019-05-18T08:07:36.393Z,925
2019-05-18T08:08:37.521Z,925
2019-05-18T08:09:38.933Z,925
2019-05-18T08:10:43.378Z,924.9
2019-05-18T08:11:40.873Z,925
2019-05-18T08:12:42.280Z,925
2019-05-18T08:13:43.034Z,925
2019-05-18T08:14:44.479Z,924.9
2019-05-18T08:15:45.873Z,925
2019-05-18T08:16:47.263Z,924.9
2019-05-18T08:17:48.653Z,924.9
2019-05-18T08:18:49.786Z,925
2019-05-18T08:19:51.205Z,924.8
2019-05-18T08:20:52.711Z,925
2019-05-18T08:21:59.091Z,925
2019-05-18T08:22:55.455Z,924.6
2019-05-18T08:23:56.198Z,925
2019-05-18T08:24:57.612Z,924.9
2019-05-18T08:25:59.032Z,924.9
2019-05-18T08:27:02.212Z,924.8
2019-05-18T08:28:01.729Z,924.9
2019-05-18T08:29:03.133Z,924.5
2019-05-18T08:30:04.577Z,924.8
2019-05-18T08:31:05.931Z,924.8
2019-05-18T08:32:07.340Z,924.9
2019-05-18T08:33:08.787Z,924.8
2019-05-18T08:34:09.549Z,924.9
2019-05-18T08:35:10.959Z,924.7
2019-05-18T08:36:12.365Z,924.9
2019-05-18T08:37:13.762Z,924.9
2019-05-18T08:38:15.161Z,924.9
2019-05-18T08:39:16.581Z,924.9
2019-05-18T08:40:17.725Z,924.8
2019-05-18T08:41:19.123Z,924.9
2019-05-18T08:42:20.515Z,924.8
2019-05-18T08:43:21.927Z,924.9
2019-05-18T08:44:22.671Z,924.8
2019-05-18T08:45:24.093Z,924.8
2019-05-18T08:46:25.226Z,924.8
2019-05-18T08:47:26.628Z,924.5
2019-05-18T08:48:28.033Z,924.8
2019-05-18T08:49:29.450Z,924.8
2019-05-18T08:50:30.865Z,924.7
2019-05-18T08:51:32.268Z,924.8
2019-05-18T08:52:35.136Z,924.8
2019-05-18T08:53:34.283Z,924.7
2019-05-18T08:54:35.046Z,924.7
2019-05-18T08:55:36.671Z,924.7
2019-05-18T08:56:37.059Z,924.7
2019-05-18T08:57:38.458Z,924.7
2019-05-18T08:58:39.849Z,924.8
2019-05-18T08:59:41.250Z,924.7
2019-05-18T09:00:42.662Z,924.7
2019-05-18T09:01:44.057Z,924.7
2019-05-18T09:02:45.455Z,924.7
2019-05-18T09:03:46.847Z,924.7
2019-05-18T09:04:47.634Z,924.6
2019-05-18T09:05:49.052Z,924.7
2019-05-18T09:06:50.445Z,924.7
2019-05-18T09:07:51.843Z,924.5
2019-05-18T09:08:53.239Z,924.7
2019-05-18T09:09:54.382Z,924.7
2019-05-18T09:10:55.785Z,924.7
2019-05-18T09:11:57.176Z,924.7
2019-05-18T09:12:58.575Z,924.7
2019-05-18T09:13:59.978Z,924.5
2019-05-18T09:15:00.468Z,924.7
2019-05-18T09:16:01.617Z,924.7
2019-05-18T09:17:03.012Z,924.7
2019-05-18T09:18:05.053Z,924.6
2019-05-18T09:19:05.512Z,924.6
2019-05-18T09:20:06.638Z,924.6
2019-05-18T09:21:07.784Z,924.5
2019-05-18T09:22:22.431Z,924.6
2019-05-18T09:23:09.742Z,924.6
2019-05-18T09:24:10.868Z,924.6
2019-05-18T09:25:11.626Z,924.5
2019-05-18T09:26:13.042Z,924.5
2019-05-18T09:27:14.162Z,924.6
2019-05-18T09:28:15.562Z,924.6
2019-05-18T09:29:16.963Z,924.5
2019-05-18T09:30:18.080Z,924.5
2019-05-18T09:31:19.229Z,924.5
2019-05-18T09:32:20.353Z,924.6
2019-05-18T09:33:21.483Z,924.6
2019-05-18T09:34:22.609Z,924.5
2019-05-18T09:35:23.381Z,923.3
2019-05-18T09:36:24.798Z,924.4
2019-05-18T09:37:25.921Z,924.5
2019-05-18T09:38:27.059Z,924.5
2019-05-18T09:39:28.187Z,924.5
2019-05-18T09:40:29.328Z,924.5
2019-05-18T09:41:30.467Z,924.4
2019-05-18T09:42:31.597Z,924.3
2019-05-18T09:43:32.731Z,924.4
2019-05-18T09:44:34.867Z,924.5
2019-05-18T09:45:34.562Z,924.4
2019-05-18T09:46:35.992Z,924.4
2019-05-18T09:47:37.394Z,924.4
2019-05-18T09:48:38.784Z,924.5
2019-05-18T09:49:40.180Z,924.4
2019-05-18T09:50:41.573Z,924.6
2019-05-18T09:51:43.018Z,924.5
2019-05-18T09:52:51.739Z,924.3
2019-05-18T09:53:57.305Z,923.6
2019-05-18T09:54:45.306Z,924.4
2019-05-18T09:55:45.800Z,924.4
2019-05-18T09:56:47.244Z,924.4
2019-05-18T09:57:48.647Z,924.4
2019-05-18T09:58:50.034Z,924.2
2019-05-18T09:59:51.428Z,924.4
2019-05-18T10:00:52.837Z,924.3
2019-05-18T10:01:53.982Z,924.3
2019-05-18T10:02:55.113Z,924.3
2019-05-18T10:03:56.246Z,924.4
2019-05-18T10:04:57.361Z,924.3
2019-05-18T10:05:58.118Z,924.4
2019-05-18T10:06:59.566Z,924.3
2019-05-18T10:08:00.964Z,924.2
2019-05-18T10:09:02.475Z,924.3
2019-05-18T10:10:02.904Z,924.3
2019-05-18T10:11:04.321Z,924.4
2019-05-18T10:12:05.760Z,924.3
2019-05-18T10:13:07.156Z,924.3
2019-05-18T10:14:08.288Z,923.6
2019-05-18T10:15:09.422Z,924.3
2019-05-18T10:16:10.189Z,924.2
2019-05-18T10:17:11.610Z,924.3
2019-05-18T10:18:13.002Z,924.2
2019-05-18T10:19:14.408Z,924.2
2019-05-18T10:20:15.843Z,924.2
2019-05-18T10:21:17.234Z,924.1
2019-05-18T10:22:18.652Z,924.2
2019-05-18T10:23:20.061Z,924.2
2019-05-18T10:24:21.456Z,924.1
2019-05-18T10:25:22.844Z,924.2
2019-05-18T10:26:23.332Z,924.3
2019-05-18T10:27:24.503Z,924.2
2019-05-18T10:28:25.904Z,922.8
2019-05-18T10:29:27.047Z,924.2
2019-05-18T10:30:28.166Z,924.2
2019-05-18T10:31:29.294Z,924.1
2019-05-18T10:32:30.718Z,924.2
2019-05-18T10:33:32.122Z,924.1
2019-05-18T10:34:33.527Z,924.2
2019-05-18T10:35:34.681Z,924.2
2019-05-18T10:36:35.179Z,924.1
2019-05-18T10:37:36.338Z,924.1
2019-05-18T10:38:37.725Z,924.1
2019-05-18T10:39:39.126Z,924.3
2019-05-18T10:40:40.556Z,924.2
2019-05-18T10:41:41.660Z,924.2
2019-05-18T10:42:43.073Z,924.1
2019-05-18T10:43:46.780Z,924.3
2019-05-18T10:44:45.582Z,924.1
2019-05-18T10:45:50.658Z,924
2019-05-18T10:46:47.378Z,924
2019-05-18T10:47:48.806Z,924.1
2019-05-18T10:48:50.200Z,924.1
2019-05-18T10:49:51.599Z,924.1
2019-05-18T10:50:52.997Z,924.1
2019-05-18T10:51:54.382Z,924.1
2019-05-18T10:52:55.807Z,924.1
2019-05-18T10:53:57.204Z,924.1
2019-05-18T10:54:58.607Z,924.1
2019-05-18T10:56:00.021Z,924.1
2019-05-18T10:57:00.766Z,924.1
2019-05-18T10:58:02.213Z,924
2019-05-18T10:59:03.600Z,924.1
2019-05-18T11:00:05.015Z,924
2019-05-18T11:01:06.406Z,924.1
2019-05-18T11:02:07.537Z,924.1
2019-05-18T11:03:08.677Z,924
2019-05-18T11:04:10.070Z,924.1
2019-05-18T11:05:11.476Z,924
2019-05-18T11:06:12.870Z,924
2019-05-18T11:07:13.644Z,924
2019-05-18T11:08:15.079Z,924
2019-05-18T11:09:16.471Z,924
2019-05-18T11:10:17.879Z,923.9
2019-05-18T11:11:19.279Z,923.9
2019-05-18T11:12:20.405Z,923.9
2019-05-18T11:13:21.566Z,923.9
2019-05-18T11:14:24.314Z,923.9
2019-05-18T11:15:23.698Z,923.9
2019-05-18T11:16:24.826Z,923.9
2019-05-18T11:17:25.589Z,923.9
2019-05-18T11:18:27.789Z,923.9
2019-05-18T11:19:28.281Z,923.9
2019-05-18T11:20:29.686Z,924
2019-05-18T11:21:30.812Z,924
2019-05-18T11:22:31.954Z,923.9
2019-05-18T11:23:43.078Z,923.9
2019-05-18T11:24:34.354Z,923.8
2019-05-18T11:25:35.752Z,923.9
2019-05-18T11:26:37.165Z,923.9
2019-05-18T11:27:37.919Z,923.9
2019-05-18T11:28:39.075Z,923.9
2019-05-18T11:29:40.550Z,923.9
2019-05-18T11:30:41.163Z,923.7
2019-05-18T11:31:42.573Z,923.9
2019-05-18T11:32:43.703Z,923.9
2019-05-18T11:33:44.851Z,924
2019-05-18T11:34:46.258Z,924
2019-05-18T11:35:47.655Z,923.9
2019-05-18T11:36:49.056Z,923.9
2019-05-18T11:37:49.813Z,923.8
2019-05-18T11:38:51.235Z,923.9
2019-05-18T11:39:52.650Z,923.8
2019-05-18T11:40:54.059Z,923.7
2019-05-18T11:41:55.436Z,923.8
2019-05-18T11:42:56.827Z,923.9
2019-05-18T11:43:58.243Z,923.8
2019-05-18T11:44:59.650Z,923.1
2019-05-18T11:46:01.044Z,924
2019-05-18T11:47:02.442Z,923.9
2019-05-18T11:48:03.217Z,923.9
2019-05-18T11:49:04.610Z,923.8
2019-05-18T11:50:05.747Z,923.9
2019-05-18T11:51:06.870Z,923.9
2019-05-18T11:52:08.003Z,923.9
2019-05-18T11:53:09.138Z,923.9
2019-05-18T11:54:10.607Z,923.8
2019-05-18T11:55:12.006Z,923.9
2019-05-18T11:56:13.405Z,923.9
2019-05-18T11:57:14.908Z,923.9
2019-05-18T11:58:15.653Z,923.7
2019-05-18T11:59:21.259Z,923.8
2019-05-18T12:00:17.615Z,923.8
2019-05-18T12:01:19.010Z,923.8
2019-05-18T12:02:20.419Z,923.9
2019-05-18T12:03:21.810Z,923.8
2019-05-18T12:04:23.227Z,923.9
2019-05-18T12:05:24.628Z,923.9
2019-05-18T12:06:26.076Z,923.9
2019-05-18T12:07:27.172Z,923.7
2019-05-18T12:08:27.670Z,923.9
2019-05-18T12:09:29.100Z,923.9
2019-05-18T12:10:30.485Z,923.9
2019-05-18T12:11:31.898Z,924
2019-05-18T12:12:33.299Z,923.9
2019-05-18T12:13:34.693Z,923.8
2019-05-18T12:14:35.851Z,923.7
2019-05-18T12:15:37.269Z,923.9
2019-05-18T12:16:38.645Z,923.9
2019-05-18T12:17:39.775Z,923.8
2019-05-18T12:18:40.557Z,923.8
2019-05-18T12:19:41.977Z,923.9
2019-05-18T12:20:43.384Z,923.8
2019-05-18T12:21:44.766Z,923.8
2019-05-18T12:22:46.180Z,923.8
2019-05-18T12:23:47.565Z,923.7
2019-05-18T12:24:48.999Z,923.7
2019-05-18T12:25:50.866Z,923.8
2019-05-18T12:26:51.275Z,923.7
2019-05-18T12:27:52.779Z,923.8
2019-05-18T12:28:53.529Z,923.8
2019-05-18T12:29:54.965Z,923.8
2019-05-18T12:30:56.359Z,923.8
2019-05-18T12:31:57.755Z,923.7
2019-05-18T12:32:59.162Z,923.7
2019-05-18T12:34:00.560Z,923.8
2019-05-18T12:35:01.725Z,923.7
2019-05-18T12:36:03.127Z,923.7
2019-05-18T12:37:04.258Z,923.8
2019-05-18T12:38:05.391Z,923.6
2019-05-18T12:39:06.179Z,923.7
2019-05-18T12:40:07.338Z,923.7
2019-05-18T12:41:08.743Z,923.7
2019-05-18T12:42:12.993Z,922.5
2019-05-18T12:43:11.401Z,923.7
2019-05-18T12:44:12.803Z,923.6
2019-05-18T12:45:14.224Z,923.7
2019-05-18T12:46:15.619Z,923.7
2019-05-18T12:47:19.894Z,923.2
2019-05-18T12:48:18.255Z,923.6
2019-05-18T12:49:23.801Z,923.7
2019-05-18T12:50:20.180Z,923.7
2019-05-18T12:51:21.306Z,923.7
2019-05-18T12:52:22.695Z,923.7
2019-05-18T12:53:23.834Z,923.7
2019-05-18T12:54:50.808Z,923.6
2019-05-18T12:55:26.003Z,923.7
2019-05-18T12:56:27.135Z,923.7
2019-05-18T12:57:28.269Z,923.7
2019-05-18T12:58:29.408Z,923.7
2019-05-18T12:59:30.155Z,923.6
2019-05-18T13:00:31.578Z,923.6
2019-05-18T13:01:32.709Z,923.6
2019-05-18T13:02:33.841Z,923.7
2019-05-18T13:03:34.967Z,923.7
2019-05-18T13:04:36.110Z,923.6
2019-05-18T13:05:37.534Z,923.6
2019-05-18T13:06:38.935Z,923.6
2019-05-18T13:07:40.322Z,923.6
2019-05-18T13:08:41.465Z,923.6
2019-05-18T13:09:42.223Z,923.6
2019-05-18T13:10:43.414Z,923.6
2019-05-18T13:11:44.787Z,923.6
2019-05-18T13:12:46.185Z,923.6
2019-05-18T13:13:47.579Z,923.6